Time;durP1;ratioP1;P1;durP2;ratioP2;P2;SDS_P1;SDS_P2;PMS_P1;PMS_P2;Temp;Humidity;BMP_temperature;BMP_pressure;BME280_temperature;BME280_humidity;BME280_pressure;Samples;Min_cycle;Max_cycle;Signal;HPM_P1;HPM_P2
2021/01/20 00:00:38;;;;;;;;;;;5.40;74.80;;;;;;5008142;28;117798;-90
2021/01/20 00:03:03;;;;;;;;;;;5.40;74.90;;;;;;4990409;28;119784;-90
2021/01/20 00:05:29;;;;;;;;;;;5.40;74.90;;;;;;4990350;28;119523;-90
2021/01/20 00:07:55;;;;;;;;;;;5.40;74.80;;;;;;4990762;28;117475;-91
2021/01/20 00:10:20;;;;;;;;;;;5.40;74.80;;;;;;4990896;28;117934;-90
2021/01/20 00:12:46;;;;;;;;;;;5.40;74.80;;;;;;4990055;28;120025;-90
2021/01/20 00:15:12;;;;;;;;;;;5.40;74.80;;;;;;4989988;28;119038;-90
2021/01/20 00:17:37;;;;;;;;;;;5.40;74.80;;;;;;4990651;28;117494;-90
2021/01/20 00:20:04;;;;;;;;;;;5.40;74.80;;;;;;4990958;28;117896;-90
2021/01/20 00:22:29;;;;;;;;;;;5.40;74.80;;;;;;4989911;28;122033;-90
2021/01/20 00:24:55;;;;;;;;;;;5.40;74.70;;;;;;4989836;28;120390;-90
2021/01/20 00:27:20;;;;;;;;;;;5.40;74.80;;;;;;4990866;28;117639;-90
2021/01/20 00:29:46;;;;;;;;;;;5.40;74.70;;;;;;4990779;28;117878;-91
2021/01/20 00:32:11;;;;;;;;;;;5.30;74.70;;;;;;4989894;28;121036;-90
2021/01/20 00:34:37;;;;;;;;;;;5.40;74.70;;;;;;4989446;28;119399;-90
2021/01/20 00:37:02;;;;;;;;;;;5.30;74.60;;;;;;4990422;28;117355;-90
2021/01/20 00:39:28;;;;;;;;;;;5.40;74.70;;;;;;5007838;28;117700;-90
2021/01/20 00:41:53;;;;;;;;;;;5.30;74.70;;;;;;4989207;28;120184;-90
2021/01/20 00:44:19;;;;;;;;;;;5.40;74.60;;;;;;5006572;28;117405;-90
2021/01/20 00:46:44;;;;;;;;;;;5.40;74.70;;;;;;4990389;28;117388;-90
2021/01/20 00:49:10;;;;;;;;;;;5.30;74.60;;;;;;4989910;28;117741;-90
2021/01/20 00:51:35;;;;;;;;;;;5.30;74.60;;;;;;4989624;27;121287;-90
2021/01/20 00:54:01;;;;;;;;;;;5.30;74.60;;;;;;4988774;28;121723;-90
2021/01/20 00:56:26;;;;;;;;;;;5.30;74.60;;;;;;4990220;28;117531;-90
2021/01/20 00:58:52;;;;;;;;;;;5.30;74.60;;;;;;4990429;28;117596;-90
2021/01/20 01:01:17;;;;;;;;;;;5.30;74.60;;;;;;4989260;28;120402;-90
2021/01/20 01:03:43;;;;;;;;;;;5.30;74.60;;;;;;4989566;28;119035;-90
2021/01/20 01:06:09;;;;;;;;;;;5.40;74.60;;;;;;4989963;28;117474;-90
2021/01/20 01:08:34;;;;;;;;;;;5.40;74.60;;;;;;4990531;28;117740;-90
2021/01/20 01:11:02;;;;;;;;;;;5.30;74.50;;;;;;4988925;28;121341;-90
2021/01/20 01:13:28;;;;;;;;;;;5.30;74.50;;;;;;4989534;28;118989;-90
2021/01/20 01:15:53;;;;;;;;;;;5.30;74.50;;;;;;4989970;28;117380;-90
2021/01/20 01:18:19;;;;;;;;;;;5.30;74.50;;;;;;5007268;28;117283;-90
2021/01/20 01:20:44;;;;;;;;;;;5.30;74.50;;;;;;4988934;28;120151;-90
2021/01/20 01:23:10;;;;;;;;;;;5.30;74.50;;;;;;4989075;28;119810;-90
2021/01/20 01:25:35;;;;;;;;;;;5.30;74.50;;;;;;4989648;28;117693;-90
2021/01/20 01:28:09;;;;;;;;;;;5.30;74.50;;;;;;4990388;28;117857;-90
2021/01/20 01:30:34;;;;;;;;;;;5.30;74.40;;;;;;4988796;28;120280;-90
2021/01/20 01:33:00;;;;;;;;;;;5.40;74.50;;;;;;4988745;28;119350;-90
2021/01/20 01:35:25;;;;;;;;;;;5.30;74.40;;;;;;4989526;28;117297;-90
2021/01/20 01:37:51;;;;;;;;;;;5.30;74.40;;;;;;4989929;28;117806;-90
2021/01/20 01:40:16;;;;;;;;;;;5.30;74.40;;;;;;4988752;28;120367;-90
2021/01/20 01:42:42;;;;;;;;;;;5.30;74.40;;;;;;4988817;28;119334;-90
2021/01/20 01:45:07;;;;;;;;;;;5.30;74.40;;;;;;4989469;28;117680;-90
2021/01/20 01:47:33;;;;;;;;;;;5.30;74.40;;;;;;5006526;28;117501;-90
2021/01/20 01:49:59;;;;;;;;;;;5.30;74.70;;;;;;4988215;28;121207;-90
2021/01/20 01:52:24;;;;;;;;;;;5.30;74.40;;;;;;4988476;28;119292;-90
2021/01/20 01:54:53;;;;;;;;;;;5.30;74.40;;;;;;4989136;28;117736;-90
2021/01/20 01:57:19;;;;;;;;;;;5.30;74.30;;;;;;4989798;28;117416;-90
2021/01/20 01:59:44;;;;;;;;;;;5.30;74.30;;;;;;4988477;28;121198;-90
2021/01/20 02:02:10;;;;;;;;;;;5.30;74.30;;;;;;4988235;28;119363;-90
2021/01/20 02:04:36;;;;;;;;;;;5.30;74.30;;;;;;4988341;28;117416;-90
2021/01/20 02:07:01;;;;;;;;;;;5.30;74.30;;;;;;4989863;28;117383;-90
2021/01/20 02:09:27;;;;;;;;;;;5.30;74.30;;;;;;4987981;28;120191;-90
2021/01/20 02:12:11;;;;;;;;;;;5.30;74.30;;;;;;4987924;28;120764;-90
2021/01/20 02:14:46;;;;;;;;;;;5.30;74.30;;;;;;5005505;28;117896;-90
2021/01/20 02:17:21;;;;;;;;;;;5.30;74.30;;;;;;5006455;28;117979;-90
2021/01/20 02:19:49;;;;;;;;;;;5.30;74.20;;;;;;4988008;28;120152;-90
2021/01/20 02:22:35;;;;;;;;;;;5.30;74.20;;;;;;5004735;28;120509;-90
2021/01/20 02:25:19;;;;;;;;;;;5.30;74.80;;;;;;5004837;28;117587;-90
2021/01/20 02:27:55;;;;;;;;;;;5.30;74.20;;;;;;5006033;28;117488;-90
2021/01/20 02:30:21;;;;;;;;;;;5.30;74.20;;;;;;4987880;28;120164;-90
2021/01/20 02:32:47;;;;;;;;;;;5.30;74.20;;;;;;4988283;28;120726;-90
2021/01/20 02:35:13;;;;;;;;;;;5.30;74.20;;;;;;4988899;28;117567;-90
2021/01/20 02:37:38;;;;;;;;;;;5.30;74.20;;;;;;4988929;28;117854;-90
2021/01/20 02:40:04;;;;;;;;;;;5.30;74.20;;;;;;4987646;28;120165;-90
2021/01/20 02:42:30;;;;;;;;;;;5.30;74.20;;;;;;4988073;28;119076;-91
2021/01/20 02:44:56;;;;;;;;;;;5.30;74.20;;;;;;4988703;28;117300;-91
2021/01/20 02:47:21;;;;;;;;;;;5.30;74.10;;;;;;4989105;28;117554;-90
2021/01/20 02:49:47;;;;;;;;;;;5.30;74.10;;;;;;4987398;28;121162;-90
2021/01/20 02:52:20;;;;;;;;;;;5.30;74.10;;;;;;4987560;28;119479;-91
2021/01/20 02:54:45;;;;;;;;;;;5.30;74.10;;;;;;4988730;28;117731;-91
2021/01/20 02:57:11;;;;;;;;;;;5.30;74.10;;;;;;4989088;28;117811;-90
2021/01/20 02:59:36;;;;;;;;;;;5.30;74.10;;;;;;4987599;28;121338;-91
2021/01/20 03:02:05;;;;;;;;;;;5.30;74.10;;;;;;4987643;28;119444;-91
2021/01/20 03:04:30;;;;;;;;;;;5.30;74.10;;;;;;4988453;28;117450;-90
2021/01/20 03:06:56;;;;;;;;;;;5.30;74.10;;;;;;4988932;28;117527;-91
2021/01/20 03:09:21;;;;;;;;;;;5.30;74.10;;;;;;4987666;28;120136;-90
2021/01/20 03:11:48;;;;;;;;;;;5.30;74.00;;;;;;4987773;28;119061;-91
2021/01/20 03:14:18;;;;;;;;;;;5.30;74.00;;;;;;4988202;28;117681;-91
2021/01/20 03:16:43;;;;;;;;;;;5.30;74.00;;;;;;4991423;28;116875;-91
2021/01/20 03:19:09;;;;;;;;;;;5.30;74.10;;;;;;4990923;28;120104;-90
2021/01/20 03:21:34;;;;;;;;;;;5.30;74.10;;;;;;4991017;28;120586;-90
2021/01/20 03:24:00;;;;;;;;;;;5.30;74.00;;;;;;4991418;28;117479;-91
2021/01/20 03:26:25;;;;;;;;;;;5.30;74.00;;;;;;4991910;28;117866;-90
2021/01/20 03:28:51;;;;;;;;;;;5.30;74.00;;;;;;4990920;28;119789;-90
2021/01/20 03:31:16;;;;;;;;;;;5.30;74.00;;;;;;4990880;28;120481;-91
2021/01/20 03:33:42;;;;;;;;;;;5.30;74.60;;;;;;4991421;28;118055;-91
2021/01/20 03:36:08;;;;;;;;;;;5.30;74.00;;;;;;4992071;28;117254;-91
2021/01/20 03:38:33;;;;;;;;;;;5.30;74.00;;;;;;4990611;28;121104;-91
2021/01/20 03:40:58;;;;;;;;;;;5.30;74.00;;;;;;4990449;28;120601;-90
2021/01/20 03:43:24;;;;;;;;;;;5.30;74.00;;;;;;4991353;28;117566;-91
2021/01/20 03:45:49;;;;;;;;;;;5.30;74.00;;;;;;4991765;28;117277;-91
2021/01/20 03:48:15;;;;;;;;;;;5.30;74.00;;;;;;4989967;28;121669;-90
2021/01/20 03:50:40;;;;;;;;;;;5.30;74.00;;;;;;4990059;28;120896;-90
2021/01/20 03:53:06;;;;;;;;;;;5.30;74.00;;;;;;4990925;28;117451;-90
2021/01/20 03:55:31;;;;;;;;;;;5.30;74.00;;;;;;4991534;28;117881;-90
2021/01/20 03:57:57;;;;;;;;;;;5.30;73.90;;;;;;4990394;28;120135;-90
2021/01/20 04:00:22;;;;;;;;;;;5.30;73.90;;;;;;4990146;28;120772;-91
2021/01/20 04:02:48;;;;;;;;;;;5.30;73.90;;;;;;4990996;28;117418;-90
2021/01/20 04:05:13;;;;;;;;;;;5.30;73.90;;;;;;4991684;28;117452;-91
2021/01/20 04:07:39;;;;;;;;;;;5.30;73.90;;;;;;4990498;28;120236;-91
2021/01/20 04:10:08;;;;;;;;;;;5.30;73.90;;;;;;4990716;28;119535;-90
2021/01/20 04:12:35;;;;;;;;;;;5.30;73.90;;;;;;4991547;28;117563;-90
2021/01/20 04:15:01;;;;;;;;;;;5.30;73.90;;;;;;4991042;28;117385;-90
2021/01/20 04:17:26;;;;;;;;;;;5.30;73.90;;;;;;4990074;28;120042;-90
2021/01/20 04:19:52;;;;;;;;;;;5.30;73.90;;;;;;4989890;28;120011;-89
2021/01/20 04:22:17;;;;;;;;;;;5.30;73.90;;;;;;4990460;28;117888;-90
2021/01/20 04:24:43;;;;;;;;;;;5.30;73.90;;;;;;4991250;28;117778;-90
2021/01/20 04:27:08;;;;;;;;;;;5.30;73.80;;;;;;4989014;28;121119;-90
2021/01/20 04:29:34;;;;;;;;;;;5.30;73.90;;;;;;4989504;28;120261;-90
2021/01/20 04:31:59;;;;;;;;;;;5.30;74.40;;;;;;4990820;28;117512;-90
2021/01/20 04:34:25;;;;;;;;;;;5.30;73.90;;;;;;4991066;28;119833;-90
2021/01/20 04:36:50;;;;;;;;;;;5.30;73.80;;;;;;4989734;28;119929;-90
2021/01/20 04:39:16;;;;;;;;;;;5.30;73.90;;;;;;4989469;28;120282;-90
2021/01/20 04:41:41;;;;;;;;;;;5.30;73.90;;;;;;4990455;28;117662;-90
2021/01/20 04:44:07;;;;;;;;;;;5.30;73.80;;;;;;4990621;28;117868;-90
2021/01/20 04:46:32;;;;;;;;;;;5.30;73.90;;;;;;4989590;28;120869;-90
2021/01/20 04:48:58;;;;;;;;;;;5.30;73.80;;;;;;4989204;28;120311;-90
2021/01/20 04:51:24;;;;;;;;;;;5.30;73.80;;;;;;4990074;28;117250;-89
2021/01/20 04:53:50;;;;;;;;;;;5.20;73.80;;;;;;4990633;28;117815;-90
2021/01/20 04:56:15;;;;;;;;;;;5.30;73.80;;;;;;4989441;28;121081;-90
2021/01/20 04:58:41;;;;;;;;;;;5.30;73.80;;;;;;4989420;28;119233;-90
2021/01/20 05:01:06;;;;;;;;;;;5.20;73.80;;;;;;4989782;28;117564;-90
2021/01/20 05:03:32;;;;;;;;;;;5.30;73.80;;;;;;4990587;28;117328;-90
2021/01/20 05:05:57;;;;;;;;;;;5.30;73.80;;;;;;4989194;28;120738;-90
2021/01/20 05:08:26;;;;;;;;;;;5.30;73.70;;;;;;4989118;28;119451;-90
2021/01/20 05:10:51;;;;;;;;;;;5.20;73.70;;;;;;4989984;28;117492;-89
2021/01/20 05:13:27;;;;;;;;;;;5.30;73.70;;;;;;4990370;28;117468;-90
2021/01/20 05:15:52;;;;;;;;;;;5.20;73.70;;;;;;4989198;28;121417;-90
2021/01/20 05:18:18;;;;;;;;;;;5.20;73.60;;;;;;4989124;28;119313;-90
2021/01/20 05:20:43;;;;;;;;;;;5.20;73.60;;;;;;4989863;28;117201;-90
2021/01/20 05:23:09;;;;;;;;;;;5.30;73.70;;;;;;4990316;28;117887;-90
2021/01/20 05:25:35;;;;;;;;;;;5.20;73.70;;;;;;4988982;28;120027;-90
2021/01/20 05:28:19;;;;;;;;;;;5.20;73.60;;;;;;4988649;28;119383;-90
2021/01/20 05:30:47;;;;;;;;;;;5.20;73.60;;;;;;4989440;28;117570;-90
2021/01/20 05:33:14;;;;;;;;;;;5.20;73.70;;;;;;4990006;28;117767;-90
2021/01/20 05:35:39;;;;;;;;;;;5.20;74.20;;;;;;4988870;28;120260;-90
2021/01/20 05:38:05;;;;;;;;;;;5.20;73.70;;;;;;4988753;27;120038;-90
2021/01/20 05:40:33;;;;;;;;;;;5.20;73.70;;;;;;4989216;28;117506;-90
2021/01/20 05:42:58;;;;;;;;;;;5.20;73.70;;;;;;4990010;28;117851;-90
2021/01/20 05:45:24;;;;;;;;;;;5.30;73.70;;;;;;4988860;28;121230;-90
2021/01/20 05:48:00;;;;;;;;;;;5.20;73.60;;;;;;4988659;28;119683;-90
2021/01/20 05:50:25;;;;;;;;;;;5.20;73.60;;;;;;4988949;28;117677;-90
2021/01/20 05:53:10;;;;;;;;;;;5.20;73.60;;;;;;4989520;28;117426;-90
2021/01/20 05:55:36;;;;;;;;;;;5.20;73.60;;;;;;4988461;28;120348;-90
2021/01/20 05:58:01;;;;;;;;;;;5.30;73.70;;;;;;4988579;28;119211;-90
2021/01/20 06:00:27;;;;;;;;;;;5.20;74.20;;;;;;4988674;28;117531;-90
2021/01/20 06:02:54;;;;;;;;;;;5.20;73.60;;;;;;4989770;28;117654;-90
2021/01/20 06:05:19;;;;;;;;;;;5.20;73.60;;;;;;4988568;28;121171;-90
2021/01/20 06:07:45;;;;;;;;;;;5.20;73.60;;;;;;4988401;28;119359;-90
2021/01/20 06:10:10;;;;;;;;;;;5.20;73.60;;;;;;4989242;28;117514;-90
2021/01/20 06:12:36;;;;;;;;;;;5.20;73.60;;;;;;4989448;28;117815;-90
2021/01/20 06:15:01;;;;;;;;;;;5.20;73.50;;;;;;4988212;28;121019;-90
2021/01/20 06:17:29;;;;;;;;;;;5.20;73.60;;;;;;4988057;28;120301;-90
2021/01/20 06:19:57;;;;;;;;;;;5.20;74.10;;;;;;4988683;28;117684;-89
2021/01/20 06:22:22;;;;;;;;;;;5.20;73.60;;;;;;4989589;28;116908;-90
2021/01/20 06:24:49;;;;;;;;;;;5.20;73.50;;;;;;4988176;28;120105;-90
2021/01/20 06:27:18;;;;;;;;;;;5.20;73.60;;;;;;5005089;28;118018;-90
2021/01/20 06:29:50;;;;;;;;;;;5.20;73.60;;;;;;4988614;28;117869;-89
2021/01/20 06:32:16;;;;;;;;;;;5.20;73.60;;;;;;4989600;28;117586;-89
2021/01/20 06:34:50;;;;;;;;;;;5.20;73.60;;;;;;4988287;28;120146;-89
2021/01/20 06:37:34;;;;;;;;;;;5.20;73.60;;;;;;4987968;28;119596;-89
2021/01/20 06:40:00;;;;;;;;;;;5.20;73.60;;;;;;4988668;28;117573;-89
2021/01/20 06:42:29;;;;;;;;;;;5.20;73.60;;;;;;4989167;28;117527;-89
2021/01/20 06:45:24;;;;;;;;;;;5.20;73.60;;;;;;4987810;28;120161;-89
2021/01/20 06:48:08;;;;;;;;;;;5.20;73.60;;;;;;4982798;28;119276;-89
2021/01/20 06:50:34;;;;;;;;;;;5.20;73.60;;;;;;4989431;28;117402;-89
2021/01/20 06:53:03;;;;;;;;;;;5.20;73.60;;;;;;4992446;28;117888;-89
2021/01/20 06:55:35;;;;;;;;;;;5.20;73.60;;;;;;4991137;28;120886;-89
2021/01/20 06:58:30;;;;;;;;;;;5.20;73.60;;;;;;4991196;28;119361;-89
2021/01/20 07:00:59;;;;;;;;;;;5.20;73.60;;;;;;4987117;28;117524;-89
2021/01/20 07:03:40;;;;;;;;;;;5.20;73.60;;;;;;5009059;28;117855;-89
2021/01/20 07:06:44;;;;;;;;;;;5.20;73.60;;;;;;4991195;28;121415;-89
2021/01/20 07:09:14;;;;;;;;;;;5.20;73.70;;;;;;4908288;28;120341;-89
2021/01/20 07:12:12;;;;;;;;;;;5.20;73.70;;;;;;4893874;28;117613;-89
2021/01/20 07:14:40;;;;;;;;;;;5.20;73.60;;;;;;4938138;28;118054;-88
2021/01/20 07:17:06;;;;;;;;;;;5.20;73.70;;;;;;4991125;28;120170;-89
2021/01/20 07:19:33;;;;;;;;;;;5.20;73.70;;;;;;4990833;28;119600;-88
2021/01/20 07:21:59;;;;;;;;;;;5.20;73.70;;;;;;4991694;28;117514;-88
2021/01/20 07:24:24;;;;;;;;;;;5.20;73.70;;;;;;4992104;28;117873;-88
2021/01/20 07:26:50;;;;;;;;;;;5.20;73.70;;;;;;4991150;28;120963;-88
2021/01/20 07:29:19;;;;;;;;;;;5.20;73.70;;;;;;4990523;28;120675;-89
2021/01/20 07:31:48;;;;;;;;;;;5.20;73.70;;;;;;4993671;28;117426;-89
2021/01/20 07:34:13;;;;;;;;;;;5.20;73.70;;;;;;4991637;28;117713;-88
2021/01/20 07:36:39;;;;;;;;;;;5.20;73.70;;;;;;4990795;28;120389;-88
2021/01/20 07:39:19;;;;;;;;;;;5.20;73.70;;;;;;4990840;28;120362;-88
2021/01/20 07:41:52;;;;;;;;;;;5.20;73.70;;;;;;5008110;28;117484;-88
2021/01/20 07:44:17;;;;;;;;;;;5.20;73.70;;;;;;4991964;28;117469;-88
2021/01/20 07:46:43;;;;;;;;;;;5.20;73.80;;;;;;4990576;28;120170;-89
2021/01/20 07:49:09;;;;;;;;;;;5.20;73.80;;;;;;4990127;28;119004;-89
2021/01/20 07:51:34;;;;;;;;;;;5.20;73.80;;;;;;4991552;28;117517;-89
2021/01/20 07:54:03;;;;;;;;;;;5.20;73.80;;;;;;4991482;28;117403;-89
2021/01/20 07:56:29;;;;;;;;;;;5.20;73.80;;;;;;4990455;28;121013;-89
2021/01/20 07:58:55;;;;;;;;;;;5.20;73.80;;;;;;4990104;28;120381;-89
2021/01/20 08:01:26;;;;;;;;;;;5.20;73.80;;;;;;4990449;27;117590;-88
2021/01/20 08:03:52;;;;;;;;;;;5.20;73.80;;;;;;4990604;28;117401;-89
2021/01/20 08:06:17;;;;;;;;;;;5.20;73.80;;;;;;4990173;28;121677;-89
2021/01/20 08:08:57;;;;;;;;;;;5.20;73.80;;;;;;4990317;28;120853;-89
2021/01/20 08:11:27;;;;;;;;;;;5.20;73.80;;;;;;4990737;28;117350;-89
2021/01/20 08:13:53;;;;;;;;;;;5.20;73.80;;;;;;4991270;28;119410;-89
2021/01/20 08:16:19;;;;;;;;;;;5.20;73.90;;;;;;4990239;28;120869;-89
2021/01/20 08:18:44;;;;;;;;;;;5.20;73.90;;;;;;4990143;28;119298;-89
2021/01/20 08:21:10;;;;;;;;;;;5.20;73.90;;;;;;4990498;28;117573;-89
2021/01/20 08:23:42;;;;;;;;;;;5.20;73.90;;;;;;4991102;28;117863;-89
2021/01/20 08:26:08;;;;;;;;;;;5.20;73.90;;;;;;4989681;28;120711;-89
2021/01/20 08:28:33;;;;;;;;;;;5.20;73.90;;;;;;4990011;28;119558;-89
2021/01/20 08:30:59;;;;;;;;;;;5.20;73.90;;;;;;4990348;28;117736;-89
2021/01/20 08:33:24;;;;;;;;;;;5.20;73.90;;;;;;4990805;28;117527;-89
2021/01/20 08:35:56;;;;;;;;;;;5.20;73.90;;;;;;4989724;28;121478;-90
2021/01/20 08:38:26;;;;;;;;;;;5.20;73.90;;;;;;4989914;28;120145;-89
2021/01/20 08:41:11;;;;;;;;;;;5.20;73.90;;;;;;4990569;28;117619;-89
2021/01/20 08:43:36;;;;;;;;;;;5.20;73.90;;;;;;4990883;28;117534;-89
2021/01/20 08:46:23;;;;;;;;;;;5.20;73.90;;;;;;4989762;28;120365;-89
2021/01/20 08:48:56;;;;;;;;;;;5.20;73.90;;;;;;4989039;28;119527;-89
2021/01/20 08:51:21;;;;;;;;;;;5.20;74.00;;;;;;4989884;28;117589;-89
2021/01/20 08:53:46;;;;;;;;;;;5.20;74.00;;;;;;4990699;28;117873;-89
2021/01/20 08:56:12;;;;;;;;;;;5.20;74.00;;;;;;4989589;28;120130;-89
2021/01/20 08:58:37;;;;;;;;;;;5.20;73.90;;;;;;4989313;28;120966;-89
2021/01/20 09:01:03;;;;;;;;;;;5.20;74.00;;;;;;4989960;28;117566;-89
2021/01/20 09:03:32;;;;;;;;;;;5.20;74.00;;;;;;5025589;28;117345;-89
2021/01/20 09:05:58;;;;;;;;;;;5.20;73.90;;;;;;4989569;28;120846;-89
2021/01/20 09:08:24;;;;;;;;;;;5.20;73.90;;;;;;4989307;28;119258;-89
2021/01/20 09:10:50;;;;;;;;;;;5.20;73.90;;;;;;4989873;28;117595;-89
2021/01/20 09:13:17;;;;;;;;;;;5.20;73.90;;;;;;4989744;28;117824;-89
2021/01/20 09:15:43;;;;;;;;;;;5.20;74.00;;;;;;4989261;28;120826;-89
2021/01/20 09:18:09;;;;;;;;;;;5.20;74.00;;;;;;4989254;28;118959;-89
2021/01/20 09:20:34;;;;;;;;;;;5.20;74.00;;;;;;4989623;28;117423;-89
2021/01/20 09:23:00;;;;;;;;;;;5.20;74.00;;;;;;4990369;28;117791;-89
2021/01/20 09:25:26;;;;;;;;;;;5.20;74.00;;;;;;4988922;28;119857;-89
2021/01/20 09:27:52;;;;;;;;;;;5.20;74.00;;;;;;4989083;28;119375;-89
2021/01/20 09:30:17;;;;;;;;;;;5.20;74.00;;;;;;4989550;28;117408;-89
2021/01/20 09:32:43;;;;;;;;;;;5.20;74.00;;;;;;4990190;28;117711;-89
2021/01/20 09:35:12;;;;;;;;;;;5.20;74.00;;;;;;4988927;28;121837;-89
2021/01/20 09:37:38;;;;;;;;;;;5.20;74.00;;;;;;4988748;28;120692;-89
2021/01/20 09:40:04;;;;;;;;;;;5.20;74.00;;;;;;4989309;28;117696;-89
2021/01/20 09:42:29;;;;;;;;;;;5.20;74.10;;;;;;5006353;28;117457;-89
2021/01/20 09:44:55;;;;;;;;;;;5.20;74.10;;;;;;4988656;28;122325;-88
2021/01/20 09:47:21;;;;;;;;;;;5.20;74.10;;;;;;4988690;28;119529;-89
2021/01/20 09:49:46;;;;;;;;;;;5.20;74.10;;;;;;4988618;28;117787;-89
2021/01/20 09:52:15;;;;;;;;;;;5.20;74.10;;;;;;4989977;28;117248;-88
2021/01/20 09:54:41;;;;;;;;;;;5.20;74.10;;;;;;4989198;28;120096;-89
2021/01/20 09:57:07;;;;;;;;;;;5.20;74.10;;;;;;4988573;28;120022;-89
2021/01/20 09:59:32;;;;;;;;;;;5.20;74.10;;;;;;4988919;28;117373;-89
2021/01/20 10:01:58;;;;;;;;;;;5.20;74.10;;;;;;4989490;28;117857;-88
2021/01/20 10:04:23;;;;;;;;;;;5.20;74.10;;;;;;4988969;28;119826;-89
2021/01/20 10:06:50;;;;;;;;;;;5.20;74.10;;;;;;4988526;28;117999;-89
2021/01/20 10:09:16;;;;;;;;;;;5.20;74.10;;;;;;4988939;28;117384;-89
2021/01/20 16:57:41;;;;;;;;;;;5.50;73.90;;;;;;1035660;22;120310;-92
2021/01/20 17:00:07;;;;;;;;;;;5.50;73.90;;;;;;4922291;28;121352;-87
2021/01/20 17:02:35;;;;;;;;;;;5.50;74.00;;;;;;4929661;28;117573;-87
2021/01/20 17:05:06;;;;;;;;;;;5.50;74.00;;;;;;4922410;28;117495;-87
2021/01/20 17:07:34;;;;;;;;;;;5.50;73.90;;;;;;4920696;28;119239;-87
2021/01/20 17:10:03;;;;;;;;;;;5.50;73.90;;;;;;4904853;28;118084;-87
2021/01/20 17:12:31;;;;;;;;;;;5.50;73.90;;;;;;4905812;28;117760;-89
2021/01/20 17:14:57;;;;;;;;;;;5.60;73.80;;;;;;4906907;28;117542;-89
2021/01/20 17:17:23;;;;;;;;;;;5.60;73.80;;;;;;4902792;28;118193;-88
2021/01/20 17:19:50;;;;;;;;;;;5.60;73.80;;;;;;4904433;28;118046;-88
2021/01/20 17:22:16;;;;;;;;;;;5.60;73.90;;;;;;4920957;28;117888;-89
2021/01/20 17:24:42;;;;;;;;;;;5.60;73.90;;;;;;4905424;28;117879;-89
2021/01/20 17:27:13;;;;;;;;;;;5.60;73.90;;;;;;4904888;28;118839;-89
2021/01/20 17:29:41;;;;;;;;;;;5.60;74.00;;;;;;4904367;28;118244;-89
2021/01/20 17:32:10;;;;;;;;;;;5.60;73.90;;;;;;4905978;28;117278;-88
2021/01/20 17:34:36;;;;;;;;;;;5.60;73.90;;;;;;4905417;28;117393;-88
2021/01/20 17:37:02;;;;;;;;;;;5.60;74.00;;;;;;4903519;28;117741;-88
2021/01/20 17:39:32;;;;;;;;;;;5.60;73.90;;;;;;4904230;28;117455;-88
2021/01/20 17:41:58;;;;;;;;;;;5.60;74.00;;;;;;4905173;28;117528;-88
2021/01/20 17:44:25;;;;;;;;;;;5.70;74.00;;;;;;4905142;28;117377;-88
2021/01/20 17:46:52;;;;;;;;;;;5.70;74.10;;;;;;4904304;28;120757;-89
2021/01/20 17:49:18;;;;;;;;;;;5.70;74.30;;;;;;4906119;28;117576;-88
2021/01/20 17:51:51;;;;;;;;;;;5.70;74.20;;;;;;4908274;28;117504;-89
2021/01/20 17:54:17;;;;;;;;;;;5.70;74.20;;;;;;4908578;28;117592;-88
2021/01/20 17:56:43;;;;;;;;;;;5.70;74.00;;;;;;4907379;28;117659;-88
2021/01/20 17:59:08;;;;;;;;;;;5.70;74.10;;;;;;4904096;28;120088;-88
2021/01/20 18:01:36;;;;;;;;;;;5.70;74.40;;;;;;4888527;28;117514;-88
2021/01/20 18:04:02;;;;;;;;;;;5.70;74.20;;;;;;4889809;28;117901;-88
2021/01/20 18:06:27;;;;;;;;;;;5.70;74.40;;;;;;4888277;28;119522;-88
2021/01/20 18:08:53;;;;;;;;;;;5.70;74.40;;;;;;4887995;28;120345;-88
2021/01/20 18:11:18;;;;;;;;;;;5.70;74.30;;;;;;4888502;28;117344;-88
2021/01/20 18:13:44;;;;;;;;;;;5.70;74.30;;;;;;4889034;28;117943;-88
2021/01/20 18:16:09;;;;;;;;;;;5.70;74.30;;;;;;4887602;28;120328;-88
2021/01/20 18:18:35;;;;;;;;;;;5.70;74.40;;;;;;4887946;28;120592;-88
2021/01/20 18:21:00;;;;;;;;;;;5.80;74.30;;;;;;4888584;28;117372;-88
2021/01/20 18:23:28;;;;;;;;;;;5.70;74.40;;;;;;4888845;28;117902;-88
2021/01/20 18:25:53;;;;;;;;;;;5.80;74.30;;;;;;4888072;28;118548;-88
2021/01/20 18:28:19;;;;;;;;;;;5.80;74.40;;;;;;4887548;28;120457;-88
2021/01/20 18:30:46;;;;;;;;;;;5.80;74.40;;;;;;4888778;28;117397;-88
2021/01/20 18:33:12;;;;;;;;;;;5.80;74.40;;;;;;4888795;28;117600;-88
2021/01/20 18:35:37;;;;;;;;;;;5.80;74.40;;;;;;4887643;28;119169;-88
2021/01/20 18:38:04;;;;;;;;;;;5.80;74.20;;;;;;4887610;28;120783;-88
2021/01/20 18:40:29;;;;;;;;;;;5.80;74.20;;;;;;4888401;28;117232;-88
2021/01/20 18:42:58;;;;;;;;;;;5.80;74.20;;;;;;4888350;28;117764;-88
2021/01/20 18:45:23;;;;;;;;;;;5.80;74.00;;;;;;4887890;28;121265;-88
2021/01/20 18:47:49;;;;;;;;;;;5.80;74.10;;;;;;4890115;28;120401;-88
2021/01/20 18:50:14;;;;;;;;;;;5.80;74.20;;;;;;4891766;28;117498;-88
2021/01/20 18:52:40;;;;;;;;;;;5.80;74.40;;;;;;4892023;28;117783;-88
2021/01/20 18:55:06;;;;;;;;;;;5.80;74.20;;;;;;4890953;28;117704;-88
2021/01/20 18:57:32;;;;;;;;;;;5.80;74.40;;;;;;4892186;28;119997;-88
2021/01/20 18:59:58;;;;;;;;;;;5.80;74.40;;;;;;4910959;28;117443;-88
2021/01/20 19:02:23;;;;;;;;;;;5.80;74.30;;;;;;4910926;28;117347;-88
2021/01/20 19:04:49;;;;;;;;;;;5.80;74.20;;;;;;4909860;28;121500;-88
2021/01/20 19:07:14;;;;;;;;;;;5.80;74.20;;;;;;4909856;28;120488;-89
2021/01/20 19:09:40;;;;;;;;;;;5.80;74.20;;;;;;4910420;28;117443;-88
2021/01/20 19:12:05;;;;;;;;;;;5.80;74.10;;;;;;4910727;28;117861;-88
2021/01/20 19:14:31;;;;;;;;;;;5.80;74.30;;;;;;4909782;28;120508;-88
2021/01/20 19:16:56;;;;;;;;;;;5.80;74.30;;;;;;4909759;28;119608;-88
2021/01/20 19:19:22;;;;;;;;;;;5.80;74.20;;;;;;4910533;28;117526;-88
2021/01/20 19:21:54;;;;;;;;;;;5.80;74.20;;;;;;4910597;28;117776;-88
2021/01/20 19:24:19;;;;;;;;;;;5.80;74.30;;;;;;4910565;28;121359;-88
2021/01/20 19:26:45;;;;;;;;;;;5.80;74.10;;;;;;4909503;28;120939;-88
2021/01/20 19:29:11;;;;;;;;;;;5.80;74.20;;;;;;4910146;28;117601;-88
2021/01/20 19:31:37;;;;;;;;;;;5.80;74.10;;;;;;4910612;28;118026;-88
2021/01/20 19:34:03;;;;;;;;;;;5.80;74.20;;;;;;4909305;28;120391;-88
2021/01/20 19:36:28;;;;;;;;;;;5.80;74.20;;;;;;4909295;28;119737;-88
2021/01/20 19:38:54;;;;;;;;;;;5.80;74.20;;;;;;4910130;28;117498;-88
2021/01/20 19:41:20;;;;;;;;;;;5.80;74.20;;;;;;4910160;28;117564;-88
2021/01/20 19:43:45;;;;;;;;;;;5.80;74.20;;;;;;4910056;28;118598;-88
2021/01/20 19:46:11;;;;;;;;;;;5.80;74.10;;;;;;4909285;28;119180;-88
2021/01/20 19:48:37;;;;;;;;;;;5.80;74.30;;;;;;4910024;28;116949;-88
2021/01/20 19:51:04;;;;;;;;;;;5.90;74.20;;;;;;4910146;28;117828;-88
2021/01/20 19:53:30;;;;;;;;;;;5.80;74.00;;;;;;4909102;28;120142;-88
2021/01/20 19:55:56;;;;;;;;;;;5.80;74.20;;;;;;4908881;28;119129;-88
2021/01/20 19:58:21;;;;;;;;;;;5.90;74.10;;;;;;4909362;28;117680;-88
2021/01/20 20:00:47;;;;;;;;;;;5.80;74.20;;;;;;4910303;28;117785;-88
2021/01/20 20:03:13;;;;;;;;;;;5.80;74.20;;;;;;4908857;28;120780;-88
2021/01/20 20:05:38;;;;;;;;;;;5.90;74.20;;;;;;4909042;28;120023;-88
2021/01/20 20:08:04;;;;;;;;;;;5.90;74.20;;;;;;4909873;28;117464;-88
2021/01/20 20:10:30;;;;;;;;;;;5.90;74.20;;;;;;4910262;28;117446;-88
2021/01/20 20:12:55;;;;;;;;;;;5.90;74.10;;;;;;4908535;28;121226;-88
2021/01/20 20:15:21;;;;;;;;;;;5.90;74.20;;;;;;4908611;28;119659;-88
2021/01/20 20:17:46;;;;;;;;;;;5.90;74.20;;;;;;4909657;28;117797;-88
2021/01/20 20:20:12;;;;;;;;;;;5.90;74.10;;;;;;4910085;28;117472;-88
2021/01/20 20:22:38;;;;;;;;;;;5.90;74.10;;;;;;4908402;28;120749;-88
2021/01/20 20:25:04;;;;;;;;;;;5.90;74.00;;;;;;4909176;28;119425;-88
2021/01/20 20:27:30;;;;;;;;;;;5.90;74.00;;;;;;4909346;28;117643;-88
2021/01/20 20:29:57;;;;;;;;;;;5.90;74.10;;;;;;4910040;28;117396;-88
2021/01/20 20:32:23;;;;;;;;;;;5.90;74.10;;;;;;4908683;28;120167;-88
2021/01/20 20:34:48;;;;;;;;;;;5.90;74.00;;;;;;4908649;28;120592;-88
2021/01/20 20:37:14;;;;;;;;;;;5.90;74.00;;;;;;4909269;28;117446;-88
2021/01/20 20:39:39;;;;;;;;;;;5.90;74.00;;;;;;4909561;28;117580;-88
2021/01/20 20:42:05;;;;;;;;;;;5.90;74.00;;;;;;4908095;28;120400;-88
2021/01/20 20:44:31;;;;;;;;;;;5.90;74.00;;;;;;4908367;28;120731;-89
2021/01/20 20:46:56;;;;;;;;;;;5.90;74.60;;;;;;4909223;28;117522;-88
2021/01/20 20:49:22;;;;;;;;;;;5.90;74.10;;;;;;4909937;28;117921;-88
2021/01/20 20:51:47;;;;;;;;;;;5.90;74.00;;;;;;4908204;28;120059;-88
2021/01/20 20:54:13;;;;;;;;;;;5.90;74.00;;;;;;4908151;28;120396;-88
2021/01/20 20:56:38;;;;;;;;;;;5.90;74.00;;;;;;4908969;28;117488;-88
2021/01/20 20:59:04;;;;;;;;;;;5.90;74.00;;;;;;4925655;28;117630;-88
2021/01/20 21:01:30;;;;;;;;;;;5.90;74.00;;;;;;4907908;28;120398;-88